Kamloops Airport
CYKA : now visible

Airfield :











YOU CAN JOIN US ON...

 
LOGIN :

Register | Disclaimer

   EN    FR    IT 

 









Legend :    VFR   Marginal VFR   IFR   Intensive IFR   Very Intensive IFR
Visi :
Ceiling :
>= 8 km
>= 3000ft
5 to 8 km
1000 to 3000 ft
1500m to 5 km
500 to 1000 ft
800 to 1500m
200 to 500 ft
< 800m
< 200 ft
Symbols :   Thunderstorms  Fog  Heavy snow  Heavy precipitations  Wind > 20 kt






- Airport Elevation : 1133 ft
- IATA code : YKA


CYKA - Kamloops

CURRENT METAR :
  • 071800Z VRB02KT 40SM FEW069 BKN250 08/M04 A3008 RMK AC2CI5 SLP197

EXPIRED METARs :
  • 071700Z 27004KT 40SM SCT069 BKN250 05/M04 A3007 RMK AC3CI4 SLP196
  • 071600Z 25004KT 40SM BKN069 BKN250 04/M02 A3006 RMK AC5CI2 SLP190

TAF TAF CYKA
Valid from the 07 at 13:00 until the 08 at 01:00 UTC


071238Z 0713/0801 VRB03KT P6SM FEW120 SCT240
BECMG 0713/0715 27008KT
FM072100 30012KT P6SM FEW100 RMK NXT FCST BY 071900Z



MET'MAP, your aeronautical weather chart ! - Copyright ORBIFLY December 2007 - Disclaimer

ORBIFLY MET'MAP TEAM :

Programming & Development : Alexandra Zaïnal
Concept & original design : Baudouin d'Aumeries
Assistance for programming : Marc-Olivier Méhu
Technical & hardware support : Manuel Goepfert

Contact : metmap@orbifly.com




SOURCES & CREDITS :

   NOAA       Earth
Advisory